Time;durP1;ratioP1;P1;durP2;ratioP2;P2;SDS_P1;SDS_P2;PMS_P1;PMS_P2;Temp;Humidity;BMP_temperature;BMP_pressure;BME280_temperature;BME280_humidity;BME280_pressure;Samples;Min_cycle;Max_cycle;Signal;HPM_P1;HPM_P2
2021/12/25 00:01:22;;;;;;;2.35;1.10;;;13.80;92.50;;;;;;4907081;29;20051;-53
2021/12/25 00:03:51;;;;;;;1.45;0.95;;;13.80;92.80;;;;;;4914764;29;20067;-52
2021/12/25 00:06:18;;;;;;;2.35;1.30;;;13.70;92.70;;;;;;4906919;29;20049;-52
2021/12/25 00:08:44;;;;;;;1.55;1.13;;;13.70;92.70;;;;;;4909647;29;20103;-51
2021/12/25 00:11:10;;;;;;;2.30;1.10;;;13.70;92.90;;;;;;4911695;29;20029;-52
2021/12/25 00:13:40;;;;;;;3.13;1.13;;;13.70;93.10;;;;;;4905652;29;20052;-52
2021/12/25 00:16:07;;;;;;;1.95;1.10;;;13.70;93.10;;;;;;4947893;29;20052;-52
2021/12/25 00:18:34;;;;;;;1.27;1.17;;;13.60;93.30;;;;;;4952106;29;20102;-52
2021/12/25 00:21:00;;;;;;;2.00;1.10;;;13.60;93.40;;;;;;4949938;29;20046;-52
2021/12/25 00:23:26;;;;;;;1.35;0.88;;;13.60;93.40;;;;;;4952234;29;20043;-52
2021/12/25 00:25:58;;;;;;;1.60;1.25;;;13.60;93.50;;;;;;4973165;28;20045;-52
2021/12/25 00:31:20;;;;;;;1.25;0.80;;;13.60;93.60;;;;;;4996162;28;20026;-52
2021/12/25 00:33:54;;;;;;;1.67;0.73;;;13.60;93.40;;;;;;5030716;28;20033;-52
2021/12/25 00:36:22;;;;;;;3.15;1.05;;;13.70;93.50;;;;;;5045974;28;20095;-52
2021/12/25 00:38:49;;;;;;;10.73;4.93;;;13.60;93.70;;;;;;5051088;28;20722;-53
2021/12/25 00:41:18;;;;;;;2.35;1.30;;;13.60;94.00;;;;;;5038836;28;20037;-53
2021/12/25 00:43:44;;;;;;;8.48;4.93;;;13.60;94.00;;;;;;5044346;28;20570;-52
2021/12/25 00:46:11;;;;;;;15.43;8.38;;;13.60;94.50;;;;;;5042534;28;20060;-53
2021/12/25 00:48:36;;;;;;;1.48;0.77;;;13.50;94.50;;;;;;5048495;28;20492;-52
2021/12/25 00:51:03;;;;;;;1.70;1.38;;;13.50;94.50;;;;;;5026341;28;20045;-51
2021/12/25 00:53:29;;;;;;;10.32;5.47;;;13.50;94.50;;;;;;5042666;28;20041;-52
2021/12/25 00:55:55;;;;;;;16.20;9.75;;;13.50;94.70;;;;;;5047996;28;20083;-51
2021/12/25 00:58:21;;;;;;;2.70;1.48;;;13.50;95.10;;;;;;5031978;28;20540;-52
2021/12/25 01:00:47;;;;;;;4.30;1.95;;;13.50;94.80;;;;;;5046392;28;20047;-52
2021/12/25 01:03:13;;;;;;;5.35;3.00;;;13.50;95.10;;;;;;5042780;28;20044;-52
2021/12/25 01:05:39;;;;;;;1.95;1.25;;;13.50;95.20;;;;;;5046691;28;20423;-52
2021/12/25 01:08:05;;;;;;;1.48;0.90;;;13.60;95.00;;;;;;5036556;28;20055;-52
2021/12/25 01:10:33;;;;;;;1.33;0.90;;;13.60;95.30;;;;;;5042864;28;20029;-52
2021/12/25 01:13:20;;;;;;;11.85;7.88;;;13.60;95.50;;;;;;5031941;28;20143;-52
2021/12/25 01:49:52;;;;;;;15.02;6.85;;;13.20;96.70;;;;;;5043599;28;20063;-52
2021/12/25 01:52:24;;;;;;;15.50;7.05;;;13.30;96.60;;;;;;5039765;28;20041;-52
2021/12/25 01:54:50;;;;;;;9.35;4.28;;;13.30;96.60;;;;;;5047267;28;20036;-51
2021/12/25 01:57:16;;;;;;;21.83;8.68;;;13.20;96.70;;;;;;5042761;28;20033;-52
2021/12/25 01:59:42;;;;;;;5.75;2.85;;;13.20;96.90;;;;;;5039270;28;20408;-52
2021/12/25 02:02:08;;;;;;;10.40;4.78;;;13.20;97.00;;;;;;5044012;28;20074;-53
2021/12/25 02:04:34;;;;;;;3.33;2.10;;;13.10;97.60;;;;;;5035738;28;20076;-53
2021/12/25 02:06:59;;;;;;;10.00;4.35;;;13.20;97.40;;;;;;5050686;28;20040;-52
2021/12/25 02:09:25;;;;;;;13.13;4.38;;;13.10;97.90;;;;;;5054843;28;20056;-52
2021/12/25 02:11:52;;;;;;;13.48;5.15;;;13.10;98.20;;;;;;5043525;28;20095;-53
2021/12/25 02:14:18;;;;;;;15.93;7.82;;;13.10;98.30;;;;;;5048047;28;20497;-52
2021/12/25 02:17:06;;;;;;;8.52;5.28;;;13.10;98.60;;;;;;5052816;28;20120;-52
2021/12/25 02:19:47;;;;;;;6.38;3.83;;;13.10;98.40;;;;;;5047670;28;20130;-53
2021/12/25 02:22:13;;;;;;;8.68;4.00;;;13.00;98.50;;;;;;5051244;28;20025;-53
2021/12/25 02:24:39;;;;;;;24.25;10.63;;;13.00;98.60;;;;;;5053811;28;20040;-53
2021/12/25 02:27:05;;;;;;;10.05;5.25;;;13.10;98.80;;;;;;5018305;28;20045;-52
2021/12/25 02:29:32;;;;;;;6.50;3.92;;;13.10;98.70;;;;;;5043244;28;20026;-52
2021/12/25 02:31:59;;;;;;;2.33;0.85;;;13.10;98.90;;;;;;5044673;28;20029;-52
2021/12/25 02:34:25;;;;;;;8.13;4.45;;;13.10;98.90;;;;;;5052911;28;20469;-53
2021/12/25 02:36:51;;;;;;;3.15;1.88;;;13.00;99.10;;;;;;5049217;28;20029;-52
2021/12/25 02:39:17;;;;;;;2.85;1.77;;;13.00;99.30;;;;;;5053923;28;20032;-52
2021/12/25 02:41:43;;;;;;;2.22;0.95;;;13.00;99.50;;;;;;5044226;28;20036;-52
2021/12/25 02:44:09;;;;;;;2.03;1.33;;;13.00;99.70;;;;;;5050578;28;20033;-52
2021/12/25 02:46:35;;;;;;;3.25;1.65;;;13.10;99.90;;;;;;5045642;28;20461;-52
2021/12/25 02:49:01;;;;;;;6.65;3.55;;;13.00;99.80;;;;;;5045591;28;20033;-51
2021/12/25 02:51:27;;;;;;;2.33;2.13;;;13.00;99.90;;;;;;5043525;28;20103;-53
2021/12/25 02:53:53;;;;;;;1.38;0.70;;;13.00;99.90;;;;;;5049206;28;20037;-53
2021/12/25 02:56:19;;;;;;;0.60;0.50;;;13.00;99.90;;;;;;5043249;28;20485;-52
2021/12/25 02:58:45;;;;;;;0.80;0.75;;;13.00;99.90;;;;;;5027232;28;20045;-52
2021/12/25 03:01:16;;;;;;;1.42;0.82;;;13.00;99.90;;;;;;5012713;28;20038;-51
2021/12/25 03:03:43;;;;;;;2.40;1.48;;;13.00;99.90;;;;;;5023686;28;20076;-52
2021/12/25 03:06:10;;;;;;;2.90;1.70;;;13.00;99.90;;;;;;5022232;28;20038;-52
2021/12/25 03:08:36;;;;;;;3.42;1.10;;;13.00;99.90;;;;;;5023427;28;20128;-53
2021/12/25 03:11:06;;;;;;;1.95;0.80;;;13.00;99.90;;;;;;5021438;28;20034;-52
2021/12/25 03:16:00;;;;;;;2.63;0.95;;;12.90;99.90;;;;;;5022559;28;20033;-52
2021/12/25 03:18:29;;;;;;;1.02;0.85;;;12.90;99.90;;;;;;5025156;28;20120;-52
2021/12/25 03:20:58;;;;;;;2.17;1.00;;;12.90;99.90;;;;;;4974562;28;20034;-52
2021/12/25 03:23:27;;;;;;;1.90;1.35;;;12.80;99.90;;;;;;5021372;28;20073;-52
2021/12/25 03:25:54;;;;;;;3.65;2.80;;;12.80;99.90;;;;;;5025944;28;20062;-52
2021/12/25 03:28:24;;;;;;;3.30;2.45;;;12.70;99.90;;;;;;5022493;28;20107;-52
2021/12/25 03:30:50;;;;;;;2.95;1.80;;;12.70;99.90;;;;;;5040474;28;20041;-52
2021/12/25 03:33:19;;;;;;;3.95;1.63;;;12.60;99.90;;;;;;5046642;28;20116;-52
2021/12/25 03:35:45;;;;;;;3.00;1.30;;;12.70;99.90;;;;;;5047503;28;20029;-52
2021/12/25 03:38:14;;;;;;;2.42;1.52;;;12.60;99.90;;;;;;5042679;28;20116;-52
2021/12/25 03:40:41;;;;;;;7.03;3.63;;;12.60;99.90;;;;;;5047561;28;20037;-53
2021/12/25 03:43:07;;;;;;;18.70;8.07;;;12.60;99.90;;;;;;5039960;28;20086;-52
2021/12/25 03:45:34;;;;;;;7.05;3.42;;;12.50;99.90;;;;;;5038610;28;20484;-52
2021/12/25 03:53:37;;;;;;;3.47;2.17;;;11.90;99.90;;;;;;5039406;28;20079;-53
2021/12/25 03:58:52;;;;;;;5.85;2.42;;;11.50;99.90;;;;;;5053317;28;20122;-53
2021/12/25 04:06:35;;;;;;;9.63;4.22;;;11.40;99.90;;;;;;5041184;28;20042;-52
2021/12/25 04:09:09;;;;;;;12.93;5.57;;;11.80;99.90;;;;;;5045392;28;20550;-52
2021/12/25 04:11:35;;;;;;;12.00;5.53;;;12.00;99.90;;;;;;5047067;28;20033;-52
2021/12/25 04:14:01;;;;;;;10.50;6.63;;;12.10;99.90;;;;;;5032646;28;20627;-53
2021/12/25 04:16:27;;;;;;;7.18;4.43;;;12.10;99.90;;;;;;5044817;28;20025;-53
2021/12/25 04:18:54;;;;;;;7.07;3.88;;;12.30;99.90;;;;;;5045551;28;20032;-52
2021/12/25 04:21:20;;;;;;;5.28;3.00;;;12.30;99.90;;;;;;5049891;28;20037;-53
2021/12/25 04:23:46;;;;;;;7.03;3.83;;;12.30;99.90;;;;;;5051623;28;20033;-53
2021/12/25 04:26:13;;;;;;;8.35;4.03;;;12.10;99.90;;;;;;5049788;28;20112;-52
2021/12/25 04:28:48;;;;;;;5.93;2.95;;;12.10;99.90;;;;;;5053497;28;20072;-52
2021/12/25 04:47:59;;;;;;;2.17;1.63;;;11.20;99.90;;;;;;5035007;28;20397;-53
2021/12/25 05:04:03;;;;;;;4.50;2.75;;;11.10;99.90;;;;;;5044008;28;20068;-53
2021/12/25 05:06:29;;;;;;;2.88;2.15;;;11.10;99.90;;;;;;5041082;28;20064;-53
2021/12/25 05:08:55;;;;;;;3.47;2.45;;;11.10;99.90;;;;;;5043437;28;20049;-53
2021/12/25 05:11:22;;;;;;;4.63;2.72;;;11.30;99.90;;;;;;5041007;28;20043;-52
2021/12/25 05:13:49;;;;;;;3.35;2.40;;;11.40;99.90;;;;;;5046866;28;20111;-54
2021/12/25 05:16:16;;;;;;;3.28;1.70;;;11.50;99.90;;;;;;5044193;28;20083;-53
2021/12/25 05:18:42;;;;;;;2.03;1.52;;;11.60;99.90;;;;;;5036726;28;20391;-52
2021/12/25 05:21:08;;;;;;;3.00;1.70;;;11.40;99.90;;;;;;5024928;28;20128;-53
2021/12/25 05:23:35;;;;;;;4.20;2.65;;;11.30;99.90;;;;;;5041073;28;20042;-54
2021/12/25 05:26:01;;;;;;;3.85;2.17;;;11.20;99.90;;;;;;5043588;28;20033;-53
2021/12/25 05:28:35;;;;;;;4.43;2.30;;;11.10;99.90;;;;;;5045895;28;20088;-53
2021/12/25 05:31:01;;;;;;;4.75;2.33;;;11.10;99.90;;;;;;5039196;28;20083;-53
2021/12/25 05:33:26;;;;;;;4.32;2.50;;;11.00;99.90;;;;;;5038277;28;20025;-52
2021/12/25 05:35:52;;;;;;;3.95;1.42;;;10.90;99.90;;;;;;5043826;28;20163;-53
2021/12/25 05:38:18;;;;;;;1.38;1.08;;;10.90;99.90;;;;;;5047789;28;20518;-53
2021/12/25 05:40:46;;;;;;;3.95;1.90;;;10.90;99.90;;;;;;5058363;28;20037;-52
2021/12/25 05:43:12;;;;;;;2.60;1.98;;;11.00;99.90;;;;;;5034545;28;20347;-53
2021/12/25 05:45:39;;;;;;;9.10;1.17;;;11.10;99.90;;;;;;5044363;28;20029;-54
2021/12/25 05:48:05;;;;;;;3.35;1.83;;;11.10;99.90;;;;;;5040551;28;20524;-53
2021/12/25 05:50:31;;;;;;;3.25;2.10;;;11.10;99.90;;;;;;5049307;28;20044;-53
2021/12/25 05:52:57;;;;;;;2.95;2.10;;;11.10;99.90;;;;;;5007532;28;20525;-53
2021/12/25 05:55:24;;;;;;;2.65;1.80;;;11.10;99.90;;;;;;5022375;28;20037;-54
2021/12/25 05:57:50;;;;;;;3.40;2.03;;;11.10;99.90;;;;;;5038793;28;20061;-53
2021/12/25 06:00:16;;;;;;;3.80;2.45;;;11.10;99.90;;;;;;5043402;28;20449;-52
2021/12/25 06:02:43;;;;;;;3.63;1.35;;;11.20;99.90;;;;;;5034950;28;20067;-53
2021/12/25 06:05:09;;;;;;;2.17;1.50;;;11.30;99.90;;;;;;5027218;28;20056;-53
2021/12/25 06:07:35;;;;;;;2.25;1.48;;;11.40;99.90;;;;;;5012474;28;20034;-53
2021/12/25 06:10:03;;;;;;;3.05;1.55;;;11.30;99.90;;;;;;5035329;28;20045;-52
2021/12/25 06:12:29;;;;;;;3.40;1.38;;;11.30;99.90;;;;;;5040399;28;20516;-53
2021/12/25 06:15:00;;;;;;;2.83;2.40;;;11.20;99.90;;;;;;5044022;28;20056;-53
2021/12/25 06:17:26;;;;;;;7.05;4.43;;;11.20;99.90;;;;;;5036812;28;20571;-52
2021/12/25 06:19:52;;;;;;;19.50;12.75;;;11.20;99.90;;;;;;5010680;28;20037;-53
2021/12/25 06:22:18;;;;;;;21.70;14.25;;;11.10;99.90;;;;;;5025077;28;20504;-53
2021/12/25 06:24:49;;;;;;;28.98;18.45;;;11.10;99.90;;;;;;5029203;28;20107;-53
2021/12/25 06:27:16;;;;;;;11.02;6.93;;;11.10;99.90;;;;;;5038445;28;20454;-52
2021/12/25 06:29:42;;;;;;;8.00;5.60;;;11.10;99.90;;;;;;5036616;28;20037;-52
2021/12/25 06:32:08;;;;;;;5.43;3.70;;;11.10;99.90;;;;;;5044288;28;20438;-53
2021/12/25 06:34:34;;;;;;;4.90;3.78;;;11.20;99.90;;;;;;5042330;28;20156;-54
2021/12/25 06:37:00;;;;;;;7.13;5.70;;;11.20;99.90;;;;;;5041956;28;20361;-53
2021/12/25 06:39:26;;;;;;;3.63;2.80;;;11.30;99.90;;;;;;5035956;28;20060;-53
2021/12/25 06:41:52;;;;;;;5.25;2.97;;;11.30;99.90;;;;;;5054647;28;20120;-52
2021/12/25 06:44:20;;;;;;;6.95;3.00;;;11.40;99.90;;;;;;5023872;28;20056;-53
2021/12/25 06:46:46;;;;;;;5.38;2.97;;;11.40;99.90;;;;;;5037311;28;20041;-53
2021/12/25 06:49:13;;;;;;;5.13;3.08;;;11.40;99.90;;;;;;5036674;28;20032;-54
2021/12/25 06:51:38;;;;;;;6.38;4.55;;;11.40;99.90;;;;;;5048940;28;20032;-54
2021/12/25 06:54:04;;;;;;;8.68;6.65;;;11.40;99.90;;;;;;5044936;28;20132;-53
2021/12/25 06:56:30;;;;;;;10.18;8.77;;;11.40;99.90;;;;;;5046422;28;20041;-54
2021/12/25 06:58:56;;;;;;;5.57;4.53;;;11.50;99.90;;;;;;5042660;28;20119;-52
2021/12/25 07:01:22;;;;;;;7.38;5.13;;;11.60;99.90;;;;;;5046959;28;20113;-55
2021/12/25 07:03:48;;;;;;;10.32;6.93;;;11.70;99.90;;;;;;5030453;28;20047;-53
2021/12/25 07:06:14;;;;;;;13.13;9.27;;;11.80;99.90;;;;;;5049236;28;20463;-53
2021/12/25 07:08:40;;;;;;;11.15;8.30;;;11.80;99.90;;;;;;5038112;28;20496;-53
2021/12/25 07:11:06;;;;;;;7.75;5.95;;;11.80;99.90;;;;;;5043898;28;20043;-54
2021/12/25 07:13:31;;;;;;;18.77;16.08;;;11.80;99.90;;;;;;5053371;28;20038;-54
2021/12/25 07:15:57;;;;;;;14.57;13.02;;;11.80;99.90;;;;;;5050289;28;20029;-50
2021/12/25 07:18:23;;;;;;;13.52;11.27;;;11.80;99.90;;;;;;5028044;28;20531;-52
2021/12/25 07:20:50;;;;;;;11.15;9.95;;;11.80;99.90;;;;;;5059634;28;20408;-51
2021/12/25 07:23:17;;;;;;;14.68;12.65;;;12.00;99.90;;;;;;5042137;28;20077;-51
2021/12/25 07:25:43;;;;;;;21.92;16.30;;;12.00;99.90;;;;;;5047808;28;20052;-52
2021/12/25 07:28:09;;;;;;;12.57;9.60;;;11.70;99.90;;;;;;5045133;28;20663;-51
2021/12/25 07:30:36;;;;;;;17.52;13.82;;;11.60;99.90;;;;;;5060266;28;20120;-52
2021/12/25 07:33:02;;;;;;;11.20;10.00;;;11.60;99.90;;;;;;5040487;28;20056;-51
2021/12/25 07:35:28;;;;;;;11.50;10.30;;;11.50;99.90;;;;;;5050100;28;20024;-51
2021/12/25 07:37:54;;;;;;;11.55;9.27;;;11.70;99.90;;;;;;5044251;28;20477;-52
2021/12/25 07:40:21;;;;;;;13.00;8.80;;;11.80;99.90;;;;;;5055287;28;20056;-52
2021/12/25 07:42:47;;;;;;;13.90;10.30;;;11.90;99.90;;;;;;5054305;28;20082;-51
2021/12/25 07:45:14;;;;;;;19.60;11.70;;;12.00;99.90;;;;;;5045811;28;20033;-53
2021/12/25 07:47:45;;;;;;;6.13;4.68;;;12.00;99.90;;;;;;5048677;28;20037;-52
2021/12/25 07:50:13;;;;;;;5.47;4.05;;;12.20;99.90;;;;;;5044386;28;20044;-52
2021/12/25 07:52:39;;;;;;;4.97;3.33;;;12.50;99.90;;;;;;5047939;28;20128;-52
2021/12/25 07:55:06;;;;;;;4.15;2.97;;;12.60;99.90;;;;;;5042660;28;20029;-53
2021/12/25 07:57:32;;;;;;;5.53;3.60;;;12.60;99.90;;;;;;5031209;28;20033;-52
2021/12/25 07:59:58;;;;;;;12.93;7.45;;;12.70;99.90;;;;;;5039431;28;20500;-52
2021/12/25 08:02:23;;;;;;;11.45;7.30;;;12.70;99.90;;;;;;5047331;28;20079;-52
2021/12/25 08:04:49;;;;;;;17.45;10.60;;;12.70;99.90;;;;;;5019524;28;20124;-52
2021/12/25 08:07:15;;;;;;;73.47;39.65;;;12.80;99.90;;;;;;5046785;28;20033;-52
2021/12/25 08:09:42;;;;;;;227.57;111.03;;;13.10;99.90;;;;;;5043747;28;20054;-52
2021/12/25 08:12:09;;;;;;;131.98;69.97;;;;;;;;;;5040935;28;20061;-53
2021/12/25 08:14:35;;;;;;;85.30;47.00;;;13.20;99.90;;;;;;5045334;28;20048;-53
2021/12/25 08:17:03;;;;;;;45.80;27.02;;;13.20;99.90;;;;;;5050073;28;20052;-53
2021/12/25 08:19:29;;;;;;;20.52;13.05;;;13.30;99.90;;;;;;5041226;28;20041;-52
2021/12/25 08:21:56;;;;;;;28.73;18.25;;;13.20;99.90;;;;;;5048894;28;20025;-52
2021/12/25 08:24:22;;;;;;;27.13;18.05;;;13.20;99.90;;;;;;5047813;28;20041;-53
2021/12/25 08:26:50;;;;;;;24.00;16.20;;;13.20;99.90;;;;;;5046969;28;20099;-52
2021/12/25 08:29:16;;;;;;;18.27;14.25;;;13.10;99.90;;;;;;5043697;28;20030;-53
2021/12/25 08:31:42;;;;;;;18.40;15.75;;;13.20;99.90;;;;;;5046706;28;20437;-53
2021/12/25 08:34:09;;;;;;;35.28;19.23;;;13.20;99.90;;;;;;5045108;28;20109;-52
2021/12/25 08:36:35;;;;;;;128.65;40.17;;;13.20;99.90;;;;;;5009108;28;20069;-53
2021/12/25 08:39:02;;;;;;;163.10;44.65;;;13.30;99.90;;;;;;5019072;28;20048;-52
2021/12/25 08:41:30;;;;;;;76.45;32.75;;;13.40;99.90;;;;;;5024137;28;20044;-54
2021/12/25 08:44:07;;;;;;;400.42;118.07;;;13.30;99.90;;;;;;5028058;28;20128;-51
2021/12/25 08:46:55;;;;;;;362.80;106.22;;;13.30;99.90;;;;;;5024013;28;20049;-53
2021/12/25 08:49:24;;;;;;;57.75;24.08;;;13.30;99.90;;;;;;5025785;28;20042;-53
2021/12/25 08:51:55;;;;;;;336.13;103.30;;;13.20;99.90;;;;;;5024950;28;20046;-51
2021/12/25 08:54:20;;;;;;;366.83;116.40;;;13.30;99.90;;;;;;5019843;28;20037;-53
2021/12/25 08:56:47;;;;;;;398.35;122.28;;;13.50;99.90;;;;;;5011369;28;20034;-53
2021/12/25 08:59:13;;;;;;;126.80;57.70;;;13.90;99.90;;;;;;5024381;28;20056;-53
2021/12/25 09:01:38;;;;;;;54.55;31.08;;;13.70;99.90;;;;;;4998893;28;20525;-52
2021/12/25 09:04:05;;;;;;;245.65;103.32;;;13.60;99.90;;;;;;5008694;28;20042;-52
2021/12/25 09:06:31;;;;;;;447.85;185.38;;;13.80;99.90;;;;;;5006410;28;20034;-52
2021/12/25 09:08:56;;;;;;;242.45;96.05;;;13.90;99.90;;;;;;5051084;28;20079;-52
2021/12/25 09:11:24;;;;;;;310.23;114.78;;;14.10;99.90;;;;;;5050934;28;20041;-53
2021/12/25 09:13:50;;;;;;;70.90;36.33;;;14.30;99.90;;;;;;5051146;28;20043;-52
2021/12/25 09:16:16;;;;;;;69.40;32.33;;;14.20;99.90;;;;;;5001243;28;20477;-53
2021/12/25 09:18:43;;;;;;;60.88;26.85;;;14.00;99.90;;;;;;5050286;28;20137;-52
2021/12/25 09:21:09;;;;;;;34.03;21.50;;;13.80;99.90;;;;;;5051261;28;20441;-52
2021/12/25 09:23:35;;;;;;;43.45;24.30;;;13.60;99.90;;;;;;5017272;28;20121;-53
2021/12/25 09:26:01;;;;;;;46.75;27.48;;;13.30;99.90;;;;;;5017630;28;20512;-52
2021/12/25 09:28:27;;;;;;;27.25;20.38;;;13.30;99.90;;;;;;5051053;28;20040;-53
2021/12/25 09:30:53;;;;;;;39.33;28.70;;;13.20;99.90;;;;;;5050566;28;20112;-53
2021/12/25 09:33:18;;;;;;;47.42;30.02;;;13.30;99.90;;;;;;5044695;28;20465;-52
2021/12/25 09:35:44;;;;;;;50.53;30.42;;;13.40;99.90;;;;;;5039065;28;20043;-53
2021/12/25 09:38:10;;;;;;;23.85;19.85;;;13.70;99.90;;;;;;5049648;28;20517;-52
2021/12/25 09:40:36;;;;;;;29.30;22.10;;;13.70;99.90;;;;;;5049600;28;20075;-52
2021/12/25 09:43:02;;;;;;;28.40;20.15;;;14.20;99.90;;;;;;5047380;28;20079;-51
2021/12/25 09:45:27;;;;;;;25.15;18.17;;;14.50;99.90;;;;;;5046166;28;20033;-53
2021/12/25 09:47:53;;;;;;;23.92;16.40;;;14.40;99.90;;;;;;5040562;28;20033;-53
2021/12/25 09:50:19;;;;;;;21.02;15.05;;;14.70;99.90;;;;;;5045633;28;20176;-53
2021/12/25 09:52:45;;;;;;;22.30;16.98;;;14.70;99.90;;;;;;5049852;28;20127;-53
2021/12/25 09:55:13;;;;;;;32.85;25.17;;;14.60;99.90;;;;;;5041325;28;20469;-53
2021/12/25 09:57:40;;;;;;;77.00;51.75;;;14.80;99.90;;;;;;5050591;28;20033;-53
2021/12/25 10:00:33;;;;;;;40.90;29.88;;;15.00;99.90;;;;;;5037423;28;20061;-52
2021/12/25 10:02:59;;;;;;;18.23;13.95;;;15.10;99.90;;;;;;5046668;28;20033;-52
2021/12/25 10:05:41;;;;;;;23.20;16.33;;;15.20;99.90;;;;;;5044532;28;20057;-52
2021/12/25 10:08:11;;;;;;;;;;;15.20;99.90;;;;;;5036563;28;20054;-53
2021/12/25 10:10:54;;;;;;;33.03;24.25;;;15.20;99.90;;;;;;5043596;28;20292;-53
2021/12/25 10:13:36;;;;;;;26.00;17.17;;;15.20;99.90;;;;;;5047558;28;20068;-52
2021/12/25 10:16:27;;;;;;;27.10;16.52;;;15.30;99.90;;;;;;5042636;28;20082;-53
2021/12/25 10:18:55;;;;;;;6.88;3.83;;;15.30;99.90;;;;;;5042132;28;20035;-51
2021/12/25 10:21:26;;;;;;;6.13;2.80;;;15.40;99.90;;;;;;5046085;28;20036;-51
2021/12/25 10:24:11;;;;;;;24.85;13.27;;;15.50;99.90;;;;;;5048516;28;20041;-52
2021/12/25 10:26:41;;;;;;;4.05;2.70;;;15.50;99.90;;;;;;5042239;28;20037;-52
2021/12/25 10:29:25;;;;;;;2.75;2.00;;;15.50;99.90;;;;;;5048149;28;20381;-53
2021/12/25 10:31:53;;;;;;;2.33;1.20;;;15.50;99.90;;;;;;5041104;28;20044;-53
2021/12/25 10:34:24;;;;;;;2.47;1.50;;;15.60;99.90;;;;;;5048473;28;20029;-52
2021/12/25 10:36:51;;;;;;;3.83;1.80;;;15.60;99.90;;;;;;5050360;28;20464;-52
2021/12/25 10:39:22;;;;;;;3.17;1.33;;;15.60;99.90;;;;;;5040817;28;20465;-52
2021/12/25 10:41:54;;;;;;;2.35;1.30;;;15.60;99.90;;;;;;5049797;28;20128;-52
2021/12/25 10:44:23;;;;;;;;;;;15.60;99.90;;;;;;5049925;28;20048;-52
2021/12/25 10:46:53;;;;;;;10.10;5.78;;;15.70;99.90;;;;;;5042645;28;19935;-53
2021/12/25 10:49:20;;;;;;;10.65;5.45;;;15.60;99.90;;;;;;5047788;28;20033;-53
2021/12/25 10:51:47;;;;;;;10.57;5.85;;;15.60;99.90;;;;;;5051837;28;20037;-52
2021/12/25 10:54:15;;;;;;;3.80;1.60;;;15.60;99.90;;;;;;5047303;28;20037;-52
2021/12/25 10:56:43;;;;;;;13.52;8.00;;;15.50;99.90;;;;;;5042175;28;20488;-53
2021/12/25 10:59:13;;;;;;;8.65;4.45;;;15.50;99.90;;;;;;5066284;28;20033;-53
2021/12/25 11:01:45;;;;;;;5.00;2.63;;;15.50;99.90;;;;;;5049796;28;20190;-52
2021/12/25 11:04:36;;;;;;;1.98;1.38;;;15.50;99.90;;;;;;5045444;28;20041;-53
2021/12/25 11:07:16;;;;;;;1.15;1.00;;;15.50;99.90;;;;;;5046418;28;20115;-52
2021/12/25 11:10:05;;;;;;;4.07;2.65;;;15.50;99.90;;;;;;5047417;28;20037;-53
2021/12/25 11:12:32;;;;;;;11.63;5.95;;;15.40;99.90;;;;;;5024265;28;20068;-52
2021/12/25 11:15:17;;;;;;;264.42;91.03;;;15.40;99.90;;;;;;5021473;28;20042;-53
2021/12/25 11:17:49;;;;;;;244.35;76.38;;;15.30;99.90;;;;;;5028577;28;20045;-52
2021/12/25 11:20:22;;;;;;;;;;;15.20;99.90;;;;;;5027388;28;20478;-52
2021/12/25 11:22:53;;;;;;;39.15;19.40;;;15.20;99.90;;;;;;5022847;28;20339;-54
2021/12/25 11:25:26;;;;;;;46.97;22.98;;;15.20;99.90;;;;;;5028664;28;20120;-51
2021/12/25 11:27:54;;;;;;;22.35;12.20;;;15.20;99.90;;;;;;5013426;28;20041;-53
2021/12/25 11:30:23;;;;;;;45.30;23.60;;;15.20;99.90;;;;;;5022878;28;20425;-52
2021/12/25 11:32:52;;;;;;;49.03;22.70;;;15.20;99.90;;;;;;5021222;28;20490;-52
2021/12/25 11:35:18;;;;;;;68.70;28.35;;;15.20;99.90;;;;;;5020339;28;20037;-52
2021/12/25 11:37:47;;;;;;;136.23;47.80;;;15.20;99.90;;;;;;5021837;28;20049;-54
2021/12/25 11:40:15;;;;;;;85.32;35.03;;;15.20;99.90;;;;;;5025775;28;20037;-52
2021/12/25 11:42:48;;;;;;;80.40;36.30;;;15.30;99.90;;;;;;5027841;28;20033;-53
2021/12/25 11:45:17;;;;;;;54.85;28.38;;;15.30;99.90;;;;;;5011095;28;20080;-53
2021/12/25 11:47:51;;;;;;;52.17;29.50;;;15.30;99.90;;;;;;5039646;28;20041;-51
2021/12/25 11:50:40;;;;;;;80.60;39.40;;;15.40;99.90;;;;;;5039927;28;20582;-52
2021/12/25 11:53:21;;;;;;;154.50;55.28;;;15.40;99.90;;;;;;5040696;28;20029;-51
2021/12/25 11:56:29;;;;;;;108.60;44.75;;;15.40;99.90;;;;;;5010270;28;20095;-53
2021/12/25 11:58:52;;;;;;;64.85;37.17;;;15.40;99.90;;;;;;5002966;28;20057;-52
2021/12/25 12:01:42;;;;;;;56.70;33.20;;;15.40;99.90;;;;;;5002570;28;20080;-52
2021/12/25 12:04:11;;;;;;;52.20;29.90;;;15.40;99.90;;;;;;5004330;28;20047;-53
2021/12/25 12:06:46;;;;;;;38.10;23.38;;;15.30;99.90;;;;;;4999952;28;20477;-52
2021/12/25 12:09:30;;;;;;;47.22;28.10;;;15.20;99.90;;;;;;4993251;28;20089;-52
2021/12/25 12:12:13;;;;;;;44.58;28.75;;;15.30;99.90;;;;;;4987865;28;20120;-52
2021/12/25 12:14:39;;;;;;;49.42;30.92;;;15.30;99.90;;;;;;5000570;28;20125;-53
2021/12/25 12:17:08;;;;;;;36.78;25.10;;;15.30;99.90;;;;;;5010945;28;20145;-52
2021/12/25 12:19:36;;;;;;;48.45;30.52;;;15.30;99.90;;;;;;4989839;28;20446;-52
2021/12/25 12:22:23;;;;;;;99.18;55.75;;;15.40;99.90;;;;;;4978063;28;20089;-53
2021/12/25 12:27:41;;;;;;;119.53;67.07;;;15.30;99.90;;;;;;5001127;28;20049;-52
2021/12/25 12:30:33;;;;;;;116.68;67.47;;;15.40;99.90;;;;;;5010549;28;20049;-53
2021/12/25 12:33:09;;;;;;;316.02;179.32;;;15.50;99.90;;;;;;5010613;28;20038;-52
2021/12/25 12:35:40;;;;;;;386.92;222.65;;;15.40;99.90;;;;;;5010366;28;20045;-53
2021/12/25 12:38:37;;;;;;;191.52;105.90;;;15.50;99.90;;;;;;4971582;28;20441;-52
2021/12/25 12:41:20;;;;;;;159.75;93.40;;;15.60;99.90;;;;;;5009413;28;20113;-54
2021/12/25 12:43:54;;;;;;;73.68;45.22;;;15.60;99.90;;;;;;4997115;28;20058;-52
2021/12/25 12:46:20;;;;;;;75.88;46.95;;;15.60;99.90;;;;;;4991367;28;20058;-51
2021/12/25 12:49:22;;;;;;;56.13;39.10;;;15.60;99.90;;;;;;4990940;28;20081;-52
2021/12/25 12:52:09;;;;;;;74.97;50.08;;;15.50;99.90;;;;;;4951889;29;20093;-52
2021/12/25 12:54:38;;;;;;;102.18;65.85;;;15.50;99.90;;;;;;4950954;28;20082;-52
2021/12/25 12:57:05;;;;;;;163.90;103.00;;;15.50;99.90;;;;;;4951704;29;20027;-51
2021/12/25 12:59:48;;;;;;;98.97;61.67;;;15.20;99.90;;;;;;4952005;29;20039;-51
2021/12/25 13:02:15;;;;;;;103.93;69.78;;;15.00;99.90;;;;;;4952183;29;20046;-51
2021/12/25 13:04:47;;;;;;;164.50;108.55;;;14.70;99.90;;;;;;4932710;29;20051;-51
2021/12/25 13:07:14;;;;;;;141.63;102.00;;;14.50;99.90;;;;;;4935451;29;20039;-52
2021/12/25 13:09:51;;;;;;;148.30;95.38;;;14.40;99.90;;;;;;4951246;29;20511;-51
2021/12/25 13:12:37;;;;;;;101.18;72.22;;;14.50;99.90;;;;;;4951279;29;20047;-52
2021/12/25 13:15:12;;;;;;;110.15;75.15;;;14.40;99.90;;;;;;4963783;28;20105;-51
2021/12/25 13:17:44;;;;;;;110.85;79.97;;;14.40;99.90;;;;;;4970287;28;20093;-52
2021/12/25 13:20:11;;;;;;;113.90;86.82;;;14.30;99.90;;;;;;4970928;28;20411;-52
2021/12/25 13:22:37;;;;;;;107.60;79.10;;;14.30;99.90;;;;;;4969933;28;20115;-51
2021/12/25 13:25:06;;;;;;;107.47;78.28;;;14.20;99.90;;;;;;4983536;28;20045;-51
2021/12/25 13:27:31;;;;;;;99.00;75.60;;;14.00;99.90;;;;;;5042584;28;20100;-52
2021/12/25 13:30:08;;;;;;;83.60;61.55;;;14.00;99.90;;;;;;5043114;28;20108;-52
2021/12/25 13:32:34;;;;;;;78.22;56.58;;;14.10;99.90;;;;;;5042643;28;20037;-52
2021/12/25 13:35:00;;;;;;;83.15;65.25;;;14.20;99.90;;;;;;5033149;28;20033;-52
2021/12/25 13:37:26;;;;;;;77.78;54.83;;;14.10;99.90;;;;;;5042911;28;20044;-52
2021/12/25 13:39:52;;;;;;;69.05;51.13;;;14.00;99.90;;;;;;5039122;28;20068;-52
2021/12/25 13:42:18;;;;;;;63.85;43.20;;;14.00;99.90;;;;;;5035390;28;20045;-52
2021/12/25 13:44:47;;;;;;;53.67;37.33;;;14.00;99.90;;;;;;5027557;28;20123;-52
2021/12/25 13:47:21;;;;;;;46.30;33.33;;;13.90;99.90;;;;;;5038068;28;20041;-52
2021/12/25 13:50:02;;;;;;;46.90;33.47;;;14.00;99.90;;;;;;5044289;28;20512;-53
2021/12/25 13:52:39;;;;;;;49.30;31.73;;;13.90;99.90;;;;;;5048354;28;20495;-52
2021/12/25 13:55:15;;;;;;;47.88;31.98;;;13.90;99.90;;;;;;5044273;28;20531;-52
2021/12/25 13:57:58;;;;;;;54.38;35.65;;;13.80;99.90;;;;;;5034684;28;20524;-51
2021/12/25 14:00:30;;;;;;;50.50;34.75;;;13.60;99.90;;;;;;5039692;28;20037;-52
2021/12/25 14:03:06;;;;;;;38.35;25.80;;;13.60;99.90;;;;;;5039026;28;20044;-52
2021/12/25 14:05:34;;;;;;;34.13;21.95;;;13.60;99.90;;;;;;5044654;28;20041;-52
2021/12/25 14:08:01;;;;;;;29.08;19.73;;;13.70;99.90;;;;;;5051620;28;20076;-52
2021/12/25 14:10:30;;;;;;;36.83;22.85;;;13.70;99.90;;;;;;5046393;28;20037;-53
2021/12/25 14:13:09;;;;;;;33.38;21.73;;;13.60;99.90;;;;;;5051746;28;20054;-52